| time (UTC) | temp F | wind direction | speed knots | gust knots | rain 1hr in | rain 24hr in | rain mn in | humidity % | barometer mb |
| 20260510063555 | 48 | 358 | 0.0 | 1.7 | 0.00 | 0.07 | 0.07 | 99 | 1006.9 |
| 20260510063051 | 48 | 68 | 0.9 | 1.7 | 0.00 | 0.07 | 0.07 | 99 | 1007.1 |
| 20260510062547 | 48 | 66 | 1.7 | 1.7 | 0.02 | 0.07 | 0.07 | 99 | 1007.1 |
| 20260510062043 | 49 | 15 | 0.0 | 1.7 | 0.02 | 0.07 | 0.07 | 99 | 1007.2 |
| 20260510061539 | 49 | 46 | 0.9 | 1.7 | 0.00 | 0.07 | 0.07 | 99 | 1007.5 |
| 20260510061036 | 49 | 36 | 2.6 | 2.6 | 0.00 | 0.07 | 0.07 | 99 | 1007.5 |
| 20260510060532 | 49 | 33 | 2.6 | 2.6 | 0.00 | 0.07 | 0.07 | 99 | 1007.4 |
| 20260510060029 | 49 | 56 | 1.7 | 2.6 | 0.00 | 0.07 | 0.07 | 99 | 1007.6 |
| 20260510055525 | 49 | 22 | 1.7 | 2.6 | 0.00 | 0.07 | 0.07 | 99 | 1007.8 |
| 20260510055024 | 49 | 108 | 2.6 | 3.5 | 0.00 | 0.07 | 0.07 | 99 | 1006.9 |
| 20260510054519 | 49 | 275 | 0.0 | 1.7 | 0.00 | 0.07 | 0.07 | 99 | 1007.6 |
| 20260510054014 | 49 | 339 | 1.7 | 3.5 | 0.00 | 0.07 | 0.07 | 99 | 1007.8 |
| 20260510053509 | 49 | 352 | 0.9 | 1.7 | 0.00 | 0.07 | 0.07 | 99 | 1007.7 |
| 20260510053006 | 49 | 358 | 1.7 | 1.7 | 0.00 | 0.07 | 0.07 | 99 | 1008.0 |
| 20260510052502 | 49 | 96 | 0.9 | 0.9 | 0.02 | 0.07 | 0.07 | 99 | 1008.1 |
| 20260510051958 | 49 | 31 | 0.0 | 1.7 | 0.02 | 0.07 | 0.07 | 99 | 1008.1 |
| 20260510051454 | 49 | 125 | 0.9 | 1.7 | 0.00 | 0.06 | 0.06 | 99 | 1008.1 |
| 20260510050950 | 49 | 34 | 0.0 | 1.7 | 0.02 | 0.06 | 0.06 | 99 | 1008.2 |
| 20260510050448 | 49 | 81 | 0.0 | 1.7 | 0.02 | 0.06 | 0.06 | 99 | 1008.4 |
| 20260510045945 | 50 | 139 | 2.6 | 4.3 | 0.09 | 0.06 | 0.06 | 99 | 1008.5 |
| 20260510045442 | 50 | 92 | 1.7 | 2.6 | 0.14 | 0.06 | 0.06 | 99 | 1008.3 |
| 20260510044938 | 50 | 6 | 0.9 | 1.7 | 0.14 | 0.04 | 0.04 | 99 | 1009.0 |
| 20260510044435 | 50 | 303 | 0.0 | 1.7 | 0.12 | 0.03 | 0.03 | 99 | 1008.8 |
| 20260510043932 | 50 | 88 | 0.9 | 1.7 | 0.09 | 0.02 | 0.02 | 98 | 1008.5 |
| 20260510043428 | 51 | 87 | 0.9 | 2.6 | 0.07 | 0.01 | 0.01 | 96 | 1008.6 |
| 20260510042926 | 51 | 75 | 1.7 | 1.7 | 0.02 | 0.00 | 0.00 | 95 | 1008.7 |
| 20260510042422 | 51 | 105 | 0.9 | 2.6 | 0.00 | 0.00 | 0.00 | 94 | 1008.7 |
| 20260510041918 | 51 | 68 | 1.7 | 2.6 | 0.00 | 0.00 | 0.00 | 98 | 1008.7 |
| 20260510041415 | 51 | 59 | 3.5 | 3.5 | 0.00 | 0.00 | 0.00 | 99 | 1008.9 |
| 20260510040913 | 51 | 47 | 0.9 | 2.6 | 0.00 | 0.00 | 0.00 | 99 | 1008.7 |
| 20260510040409 | 51 | 83 | 3.5 | 5.2 | 0.00 | 0.00 | 0.00 | 99 | 1008.6 |
| 20260510035905 | 51 | 89 | 1.7 | 4.3 | 0.00 | 0.37 | 0.37 | 99 | 1008.3 |
| 20260510035401 | 51 | 77 | 1.7 | 2.6 | 0.00 | 0.37 | 0.37 | 99 | 1008.5 |
| 20260510034856 | 51 | 89 | 1.7 | 3.5 | 0.00 | 0.37 | 0.37 | 99 | 1008.6 |
| 20260510034355 | 50 | 81 | 3.5 | 3.5 | 0.00 | 0.37 | 0.37 | 99 | 1008.2 |
| 20260510033851 | 51 | 112 | 2.6 | 6.1 | 0.00 | 0.37 | 0.37 | 99 | 1008.2 |
| 20260510033348 | 49 | 40 | 0.9 | 1.7 | 0.00 | 0.37 | 0.37 | 99 | 1007.4 |
| 20260510032844 | 49 | 305 | 1.7 | 1.7 | 0.00 | 0.37 | 0.37 | 99 | 1007.4 |
| 20260510032341 | 48 | 49 | 0.0 | 1.7 | 0.00 | 0.37 | 0.37 | 99 | 1007.0 |
| 20260510031836 | 48 | 315 | 0.0 | 0.9 | 0.00 | 0.37 | 0.37 | 99 | 1007.2 |
| 20260510031332 | 48 | 315 | 0.0 | 0.9 | 0.00 | 0.37 | 0.37 | 99 | 1007.2 |
| 20260510030832 | 48 | 78 | 0.9 | 1.7 | 0.00 | 0.37 | 0.37 | 99 | 1007.2 |
| 20260510030328 | 48 | 67 | 0.9 | 1.7 | 0.00 | 0.37 | 0.37 | 99 | 1007.5 |
| 20260510025826 | 48 | 96 | 1.7 | 1.7 | 0.00 | 0.37 | 0.37 | 99 | 1007.2 |
| 20260510025323 | 48 | 66 | 0.0 | 1.7 | 0.00 | 0.37 | 0.37 | 99 | 1007.2 |
| 20260510024820 | 48 | 66 | 0.9 | 1.7 | 0.00 | 0.37 | 0.37 | 99 | 1007.1 |
| 20260510024317 | 48 | 84 | 0.9 | 1.7 | 0.00 | 0.37 | 0.37 | 99 | 1007.1 |
| 20260510023813 | 49 | 98 | 1.7 | 1.7 | 0.00 | 0.37 | 0.37 | 99 | 1006.8 |
| 20260510023309 | 49 | 16 | 1.7 | 1.7 | 0.00 | 0.37 | 0.37 | 99 | 1006.8 |
| 20260510022807 | 49 | 356 | 0.0 | 1.7 | 0.00 | 0.37 | 0.37 | 99 | 1006.5 |
| 20260510022307 | 49 | 19 | 0.0 | 1.7 | 0.00 | 0.37 | 0.37 | 99 | 1006.5 |
| 20260510021805 | 49 | 38 | 0.0 | 1.7 | 0.00 | 0.37 | 0.37 | 99 | 1006.5 |
| 20260510021304 | 49 | 44 | 0.9 | 1.7 | 0.00 | 0.37 | 0.37 | 99 | 1006.3 |
| 20260510020759 | 49 | 28 | 0.9 | 1.7 | 0.00 | 0.37 | 0.37 | 99 | 1006.4 |
| 20260510020254 | 48 | 327 | 0.9 | 1.7 | 0.00 | 0.37 | 0.37 | 99 | 1006.4 |
| 20260510015750 | 48 | 91 | 1.7 | 1.7 | 0.00 | 0.37 | 0.37 | 99 | 1006.5 |
| 20260510015247 | 49 | 72 | 0.9 | 1.7 | 0.00 | 0.37 | 0.37 | 99 | 1006.7 |
| 20260510014742 | 49 | 86 | 1.7 | 1.7 | 0.00 | 0.37 | 0.37 | 99 | 1006.3 |
| 20260510014239 | 50 | 48 | 0.0 | 1.7 | 0.00 | 0.37 | 0.37 | 99 | 1006.4 |
| 20260510013735 | 50 | 47 | 1.7 | 1.7 | 0.00 | 0.37 | 0.37 | 99 | 1006.2 |
| 20260510013231 | 50 | 72 | 0.9 | 1.7 | 0.00 | 0.37 | 0.37 | 99 | 1006.2 |
| 20260510012731 | 51 | 69 | 0.0 | 1.7 | 0.00 | 0.37 | 0.37 | 99 | 1006.3 |
| 20260510012226 | 51 | 17 | 0.0 | 0.9 | 0.00 | 0.37 | 0.37 | 99 | 1006.3 |
| 20260510011720 | 51 | 35 | 0.0 | 0.9 | 0.00 | 0.37 | 0.37 | 99 | 1006.3 |
| 20260510011216 | 51 | 145 | 0.0 | 2.6 | 0.00 | 0.37 | 0.37 | 98 | 1006.3 |
| 20260510010713 | 51 | 352 | 0.9 | 1.7 | 0.00 | 0.37 | 0.37 | 99 | 1006.3 |
| 20260510010210 | 51 | 175 | 1.7 | 1.7 | 0.00 | 0.37 | 0.37 | 99 | 1006.2 |
| 20260510005707 | 51 | 338 | 0.9 | 1.7 | 0.00 | 0.37 | 0.37 | 99 | 1005.9 |
| 20260510005203 | 51 | 291 | 0.0 | 1.7 | 0.00 | 0.37 | 0.37 | 99 | 1005.9 |
| 20260510004702 | 51 | 245 | 0.0 | 1.7 | 0.00 | 0.37 | 0.37 | 99 | 1005.8 |
| 20260510004158 | 51 | 331 | 1.7 | 2.6 | 0.00 | 0.37 | 0.37 | 99 | 1005.9 |
| 20260510003656 | 51 | 343 | 0.9 | 1.7 | 0.00 | 0.37 | 0.37 | 99 | 1005.8 |
| 20260510003151 | 51 | 351 | 0.0 | 0.9 | 0.00 | 0.37 | 0.37 | 99 | 1005.6 |
| 20260510002646 | 52 | 336 | 0.9 | 1.7 | 0.00 | 0.37 | 0.37 | 99 | 1005.6 |
| 20260510002143 | 52 | 37 | 0.9 | 1.7 | 0.00 | 0.37 | 0.37 | 99 | 1005.6 |
| 20260510001640 | 52 | 37 | 0.9 | 1.7 | 0.00 | 0.37 | 0.37 | 99 | 1005.5 |
| 20260510001139 | 52 | 67 | 0.0 | 1.7 | 0.00 | 0.37 | 0.37 | 99 | 1005.5 |
| 20260510000638 | 52 | 337 | 0.0 | 1.7 | 0.00 | 0.37 | 0.37 | 99 | 1005.6 |
| 20260510000136 | 52 | 315 | 1.7 | 1.7 | 0.00 | 0.37 | 0.37 | 99 | 1005.6 |
| 20260509235632 | 52 | 55 | 0.0 | 1.7 | 0.00 | 0.37 | 0.37 | 99 | 1005.5 |
| 20260509235129 | 52 | 284 | 0.9 | 1.7 | 0.00 | 0.37 | 0.37 | 99 | 1005.7 |
| 20260509234625 | 52 | 38 | 0.0 | 1.7 | 0.00 | 0.37 | 0.37 | 99 | 1005.6 |
| 20260509234123 | 52 | 316 | 1.7 | 1.7 | 0.00 | 0.37 | 0.37 | 99 | 1005.4 |
| 20260509233620 | 53 | 339 | 0.0 | 1.7 | 0.00 | 0.37 | 0.37 | 99 | 1005.2 |
| 20260509233117 | 53 | 58 | 0.9 | 1.7 | 0.00 | 0.37 | 0.37 | 98 | 1005.2 |
| 20260509232613 | 53 | 336 | 0.0 | 1.7 | 0.00 | 0.37 | 0.37 | 98 | 1005.3 |
| 20260509232111 | 53 | 332 | 0.9 | 1.7 | 0.00 | 0.37 | 0.37 | 98 | 1005.3 |
| 20260509231607 | 54 | 322 | 0.9 | 1.7 | 0.00 | 0.37 | 0.37 | 97 | 1005.2 |
| 20260509231105 | 55 | 326 | 0.0 | 1.7 | 0.00 | 0.37 | 0.37 | 95 | 1005.1 |
| 20260509230601 | 55 | 76 | 0.0 | 1.7 | 0.00 | 0.37 | 0.37 | 93 | 1005.0 |
| 20260509230059 | 55 | 83 | 0.9 | 1.7 | 0.00 | 0.37 | 0.37 | 93 | 1005.0 |
| 20260509225554 | 55 | 97 | 1.7 | 2.6 | 0.00 | 0.37 | 0.37 | 93 | 1005.2 |
| 20260509225050 | 55 | 60 | 0.9 | 2.6 | 0.00 | 0.37 | 0.37 | 94 | 1005.1 |
| 20260509224545 | 55 | 29 | 0.9 | 2.6 | 0.00 | 0.37 | 0.37 | 93 | 1005.3 |
| 20260509224043 | 55 | 48 | 0.0 | 2.6 | 0.00 | 0.37 | 0.37 | 92 | 1005.6 |
| 20260509223539 | 56 | 122 | 3.5 | 3.5 | 0.00 | 0.37 | 0.37 | 93 | 1005.5 |
| 20260509223037 | 55 | 337 | 0.0 | 1.7 | 0.00 | 0.37 | 0.37 | 94 | 1005.5 |
| 20260509222533 | 55 | 240 | 2.6 | 3.5 | 0.00 | 0.37 | 0.37 | 94 | 1005.4 |
| 20260509222029 | 55 | 218 | 0.9 | 1.7 | 0.00 | 0.37 | 0.37 | 94 | 1005.2 |
| 20260509221525 | 55 | 202 | 4.3 | 4.3 | 0.00 | 0.37 | 0.37 | 94 | 1005.2 |
| 20260509221021 | 55 | 323 | 1.7 | 3.5 | 0.00 | 0.37 | 0.37 | 95 | 1005.2 |
| 20260509220517 | 55 | 201 | 1.7 | 4.3 | 0.00 | 0.37 | 0.37 | 95 | 1005.2 |
| 20260509220014 | 55 | 203 | 1.7 | 5.2 | 0.00 | 0.37 | 0.37 | 94 | 1005.4 |
| 20260509215509 | 55 | 207 | 1.7 | 2.6 | 0.00 | 0.37 | 0.37 | 95 | 1005.4 |
| 20260509215007 | 55 | 214 | 0.0 | 1.7 | 0.00 | 0.37 | 0.37 | 95 | 1005.5 |
| 20260509214504 | 55 | 194 | 0.9 | 2.6 | 0.00 | 0.37 | 0.37 | 95 | 1005.3 |
| 20260509214000 | 55 | 126 | 1.7 | 4.3 | 0.00 | 0.37 | 0.37 | 95 | 1005.6 |
| 20260509213456 | 55 | 182 | 1.7 | 2.6 | 0.00 | 0.37 | 0.37 | 95 | 1005.4 |
| 20260509212954 | 55 | 243 | 0.0 | 3.5 | 0.00 | 0.37 | 0.37 | 95 | 1005.4 |
| 20260509212451 | 55 | 216 | 1.7 | 3.5 | 0.00 | 0.37 | 0.37 | 95 | 1005.7 |
| 20260509211947 | 55 | 49 | 0.9 | 5.2 | 0.00 | 0.37 | 0.37 | 96 | 1005.6 |
| 20260509211442 | 55 | 230 | 0.9 | 3.5 | 0.00 | 0.37 | 0.37 | 97 | 1005.6 |
| 20260509210939 | 55 | 243 | 3.5 | 4.3 | 0.00 | 0.37 | 0.37 | 96 | 1005.7 |
| 20260509210437 | 55 | 258 | 2.6 | 3.5 | 0.00 | 0.37 | 0.37 | 97 | 1005.8 |
| 20260509205933 | 54 | 53 | 1.7 | 3.5 | 0.00 | 0.37 | 0.37 | 98 | 1005.9 |
| 20260509205433 | 54 | 355 | 2.6 | 3.5 | 0.00 | 0.37 | 0.37 | 98 | 1005.8 |
| 20260509204929 | 54 | 258 | 1.7 | 1.7 | 0.00 | 0.37 | 0.37 | 99 | 1006.0 |
| 20260509204425 | 53 | 177 | 0.0 | 1.7 | 0.02 | 0.37 | 0.37 | 99 | 1006.0 |
| 20260509203922 | 53 | 156 | 0.0 | 2.6 | 0.02 | 0.37 | 0.37 | 99 | 1006.0 |
| 20260509203418 | 53 | 36 | 0.0 | 2.6 | 0.00 | 0.36 | 0.36 | 99 | 1006.1 |
| 20260509202915 | 53 | 97 | 1.7 | 2.6 | 0.00 | 0.36 | 0.36 | 99 | 1006.0 |
| 20260509202411 | 53 | 88 | 0.9 | 2.6 | 0.00 | 0.36 | 0.36 | 99 | 1006.1 |
| 20260509201907 | 53 | 122 | 1.7 | 1.7 | 0.00 | 0.36 | 0.36 | 99 | 1006.3 |
| 20260509201402 | 53 | 106 | 0.0 | 1.7 | 0.00 | 0.36 | 0.36 | 99 | 1006.2 |
| 20260509200859 | 52 | 77 | 0.0 | 2.6 | 0.00 | 0.36 | 0.36 | 99 | 1006.3 |
| 20260509200354 | 53 | 47 | 1.7 | 1.7 | 0.00 | 0.36 | 0.36 | 99 | 1006.3 |
| 20260509195851 | 52 | 41 | 1.7 | 3.5 | 0.00 | 0.36 | 0.36 | 99 | 1006.3 |
| 20260509195346 | 52 | 107 | 1.7 | 1.7 | 0.02 | 0.36 | 0.36 | 99 | 1006.4 |
| 20260509194845 | 52 | 72 | 0.0 | 1.7 | 0.00 | 0.36 | 0.36 | 99 | 1006.6 |
| 20260509194342 | 52 | 232 | 0.0 | 1.7 | 0.00 | 0.36 | 0.36 | 99 | 1006.6 |
| 20260509193838 | 52 | 100 | 0.9 | 0.9 | 0.00 | 0.36 | 0.36 | 99 | 1006.6 |
| 20260509193338 | 52 | 24 | 0.0 | 1.7 | 0.00 | 0.36 | 0.36 | 99 | 1006.6 |
| 20260509192835 | 52 | 41 | 0.9 | 2.6 | 0.00 | 0.36 | 0.36 | 99 | 1006.8 |
| 20260509192331 | 52 | 100 | 0.9 | 2.6 | 0.00 | 0.36 | 0.36 | 99 | 1006.8 |
| 20260509191826 | 52 | 98 | 1.7 | 1.7 | 0.00 | 0.36 | 0.36 | 99 | 1006.8 |
| 20260509191322 | 52 | 63 | 1.7 | 1.7 | 0.02 | 0.36 | 0.36 | 99 | 1006.9 |
| 20260509190818 | 52 | 86 | 1.7 | 1.7 | 0.02 | 0.36 | 0.36 | 99 | 1006.8 |
| 20260509190315 | 52 | 173 | 1.7 | 2.6 | 0.05 | 0.35 | 0.35 | 99 | 1006.9 |
| 20260509185813 | 52 | 94 | 0.9 | 2.6 | 0.02 | 0.35 | 0.35 | 99 | 1007.1 |
| 20260509185308 | 52 | 135 | 0.9 | 2.6 | 0.05 | 0.35 | 0.35 | 98 | 1006.9 |
| 20260509184806 | 52 | 83 | 0.9 | 3.5 | 0.07 | 0.35 | 0.35 | 98 | 1007.0 |
| 20260509184303 | 52 | 134 | 1.7 | 2.6 | 0.02 | 0.34 | 0.34 | 98 | 1006.8 |
| 20260509183759 | 52 | 87 | 1.7 | 1.7 | 0.00 | 0.34 | 0.34 | 98 | 1006.9 |
| 20260509183255 | 52 | 82 | 0.0 | 2.6 | 0.00 | 0.34 | 0.34 | 98 | 1006.9 |
| 20260509182750 | 52 | 335 | 0.9 | 2.6 | 0.02 | 0.34 | 0.34 | 98 | 1006.9 |
| 20260509182248 | 52 | 253 | 1.7 | 2.6 | 0.02 | 0.34 | 0.34 | 98 | 1006.8 |
| 20260509181745 | 52 | 117 | 0.9 | 1.7 | 0.00 | 0.33 | 0.33 | 98 | 1006.8 |
| 20260509181243 | 52 | 119 | 0.9 | 2.6 | 0.00 | 0.33 | 0.33 | 97 | 1007.0 |
| 20260509180740 | 52 | 14 | 2.6 | 4.3 | 0.00 | 0.33 | 0.33 | 96 | 1006.9 |
| 20260509180236 | 53 | 266 | 2.6 | 8.7 | 0.00 | 0.33 | 0.33 | 95 | 1006.8 |
| 20260509175733 | 53 | 88 | 1.7 | 3.5 | 0.00 | 0.33 | 0.33 | 96 | 1006.9 |
| 20260509175229 | 53 | 70 | 0.0 | 4.3 | 0.00 | 0.33 | 0.33 | 96 | 1006.7 |
| 20260509174725 | 53 | 237 | 2.6 | 5.2 | 0.00 | 0.33 | 0.33 | 96 | 1006.7 |
| 20260509174220 | 52 | 139 | 1.7 | 4.3 | 0.00 | 0.33 | 0.33 | 96 | 1006.8 |
| 20260509173717 | 52 | 215 | 5.2 | 5.2 | 0.00 | 0.33 | 0.33 | 97 | 1006.8 |
| 20260509173212 | 52 | 169 | 1.7 | 5.2 | 0.00 | 0.33 | 0.33 | 97 | 1006.9 |
| 20260509172708 | 52 | 13 | 0.0 | 3.5 | 0.00 | 0.33 | 0.33 | 98 | 1006.8 |
| 20260509172205 | 51 | 180 | 1.7 | 5.2 | 0.00 | 0.33 | 0.33 | 98 | 1006.7 |
| 20260509171700 | 51 | 111 | 0.9 | 4.3 | 0.00 | 0.33 | 0.33 | 99 | 1006.6 |
| 20260509171157 | 51 | 127 | 1.7 | 1.7 | 0.00 | 0.33 | 0.33 | 99 | 1006.5 |
| 20260509170654 | 51 | 172 | 0.9 | 2.6 | 0.00 | 0.33 | 0.33 | 99 | 1006.8 |
| 20260509170150 | 51 | 75 | 1.7 | 1.7 | 0.00 | 0.33 | 0.33 | 99 | 1006.8 |
| 20260509165648 | 51 | 164 | 0.9 | 1.7 | 0.00 | 0.33 | 0.33 | 99 | 1006.7 |
| 20260509165144 | 51 | 119 | 0.9 | 5.2 | 0.00 | 0.33 | 0.33 | 99 | 1007.0 |
| 20260509164640 | 51 | 218 | 2.6 | 3.5 | 0.00 | 0.33 | 0.33 | 99 | 1006.9 |
| 20260509164136 | 51 | 132 | 0.9 | 1.7 | 0.00 | 0.33 | 0.33 | 99 | 1007.0 |
| 20260509163634 | 51 | 111 | 2.6 | 2.6 | 0.02 | 0.33 | 0.33 | 99 | 1006.8 |
| 20260509163129 | 51 | 88 | 1.7 | 1.7 | 0.02 | 0.33 | 0.33 | 99 | 1007.1 |
| 20260509162627 | 51 | 60 | 1.7 | 3.5 | 0.00 | 0.33 | 0.33 | 99 | 1007.1 |
| 20260509162123 | 51 | 193 | 1.7 | 2.6 | 0.02 | 0.33 | 0.33 | 99 | 1007.0 |
| 20260509161619 | 51 | 118 | 1.7 | 2.6 | 0.02 | 0.33 | 0.33 | 99 | 1007.1 |
| 20260509161114 | 51 | 262 | 1.7 | 2.6 | 0.00 | 0.32 | 0.32 | 99 | 1007.1 |
| 20260509160610 | 51 | 35 | 0.9 | 2.6 | 0.00 | 0.32 | 0.32 | 99 | 1007.2 |
| 20260509160105 | 51 | 284 | 2.6 | 4.3 | 0.00 | 0.32 | 0.32 | 99 | 1007.4 |
| 20260509155602 | 52 | 0 | 0.0 | 2.6 | 0.00 | 0.32 | 0.32 | 99 | 1007.5 |
| 20260509155058 | 51 | 135 | 0.0 | 4.3 | 0.00 | 0.32 | 0.32 | 99 | 1007.4 |
| 20260509154554 | 51 | 78 | 2.6 | 2.6 | 0.00 | 0.32 | 0.32 | 99 | 1007.6 |
| 20260509154052 | 51 | 106 | 1.7 | 4.3 | 0.00 | 0.32 | 0.32 | 99 | 1007.5 |
| 20260509153549 | 51 | 240 | 1.7 | 3.5 | 0.00 | 0.32 | 0.32 | 99 | 1007.6 |
| 20260509153046 | 51 | 96 | 0.9 | 1.7 | 0.00 | 0.32 | 0.32 | 99 | 1007.6 |
| 20260509152542 | 51 | 147 | 0.0 | 3.5 | 0.00 | 0.32 | 0.32 | 99 | 1007.5 |
| 20260509152039 | 51 | 18 | 1.7 | 2.6 | 0.02 | 0.32 | 0.32 | 99 | 1007.8 |
| 20260509151535 | 51 | 114 | 1.7 | 2.6 | 0.02 | 0.32 | 0.32 | 99 | 1007.9 |
| 20260509151033 | 51 | 143 | 0.0 | 3.5 | 0.00 | 0.32 | 0.32 | 99 | 1008.0 |
| 20260509150530 | 51 | 296 | 0.9 | 2.6 | 0.00 | 0.32 | 0.32 | 99 | 1007.8 |
| 20260509150029 | 51 | 6 | 0.9 | 2.6 | 0.02 | 0.32 | 0.32 | 99 | 1007.7 |
| 20260509145524 | 51 | 87 | 0.9 | 1.7 | 0.02 | 0.32 | 0.32 | 99 | 1007.7 |
| 20260509145019 | 50 | 23 | 0.0 | 1.7 | 0.05 | 0.32 | 0.32 | 99 | 1008.0 |
| 20260509144516 | 50 | 77 | 0.9 | 1.7 | 0.07 | 0.32 | 0.32 | 99 | 1007.9 |
| 20260509144013 | 50 | 127 | 1.7 | 3.5 | 0.02 | 0.31 | 0.31 | 99 | 1008.2 |
| 20260509143510 | 50 | 111 | 0.9 | 1.7 | 0.02 | 0.30 | 0.30 | 99 | 1008.2 |
| 20260509143008 | 50 | 68 | 0.9 | 2.6 | 0.05 | 0.30 | 0.30 | 99 | 1008.1 |
| 20260509142504 | 50 | 121 | 0.0 | 1.7 | 0.05 | 0.30 | 0.30 | 99 | 1008.1 |
| 20260509141959 | 50 | 127 | 0.9 | 1.7 | 0.02 | 0.29 | 0.29 | 99 | 1008.1 |
| 20260509141455 | 49 | 177 | 0.9 | 1.7 | 0.02 | 0.29 | 0.29 | 99 | 1008.1 |
| 20260509140953 | 49 | 202 | 0.0 | 1.7 | 0.02 | 0.29 | 0.29 | 99 | 1008.1 |
| 20260509140449 | 49 | 113 | 0.9 | 1.7 | 0.05 | 0.29 | 0.29 | 99 | 1008.3 |
| 20260509135947 | 49 | 124 | 0.0 | 1.7 | 0.05 | 0.28 | 0.28 | 99 | 1008.1 |
| 20260509135444 | 49 | 33 | 0.0 | 1.7 | 0.05 | 0.28 | 0.28 | 99 | 1008.3 |
| 20260509134941 | 49 | 347 | 0.9 | 1.7 | 0.05 | 0.28 | 0.28 | 99 | 1008.0 |
| 20260509134439 | 49 | 336 | 0.0 | 1.7 | 0.02 | 0.27 | 0.27 | 99 | 1008.1 |
| 20260509133937 | 49 | 272 | 0.9 | 2.6 | 0.02 | 0.27 | 0.27 | 99 | 1008.3 |
| 20260509133433 | 49 | 120 | 0.9 | 1.7 | 0.05 | 0.27 | 0.27 | 99 | 1008.1 |
| 20260509132931 | 49 | 208 | 1.7 | 3.5 | 0.05 | 0.26 | 0.26 | 99 | 1008.3 |
| 20260509132429 | 48 | 171 | 0.0 | 2.6 | 0.05 | 0.26 | 0.26 | 99 | 1008.1 |
| 20260509131925 | 48 | 237 | 2.6 | 4.3 | 0.05 | 0.26 | 0.26 | 99 | 1008.4 |
| 20260509131423 | 48 | 310 | 1.7 | 2.6 | 0.02 | 0.25 | 0.25 | 99 | 1008.4 |
| 20260509130919 | 48 | 267 | 1.7 | 2.6 | 0.02 | 0.25 | 0.25 | 99 | 1008.3 |
| 20260509130414 | 48 | 184 | 0.0 | 2.6 | 0.02 | 0.24 | 0.24 | 99 | 1008.4 |
| 20260509125912 | 48 | 128 | 2.6 | 2.6 | 0.05 | 0.24 | 0.24 | 99 | 1008.4 |
| 20260509125409 | 48 | 82 | 0.0 | 1.7 | 0.05 | 0.24 | 0.24 | 99 | 1008.4 |
| 20260509124904 | 47 | 343 | 0.0 | 1.7 | 0.05 | 0.23 | 0.23 | 99 | 1008.2 |
| 20260509124402 | 47 | 12 | 0.0 | 2.6 | 0.07 | 0.23 | 0.23 | 99 | 1008.4 |
| 20260509123859 | 47 | 127 | 2.6 | 2.6 | 0.09 | 0.22 | 0.22 | 99 | 1008.4 |
| 20260509123356 | 47 | 48 | 2.6 | 2.6 | 0.09 | 0.22 | 0.22 | 99 | 1008.4 |
| 20260509122852 | 47 | 34 | 2.6 | 2.6 | 0.14 | 0.21 | 0.21 | 99 | 1008.6 |
| 20260509122349 | 46 | 58 | 2.6 | 2.6 | 0.12 | 0.20 | 0.20 | 99 | 1008.6 |
| 20260509121846 | 46 | 29 | 1.7 | 3.5 | 0.07 | 0.18 | 0.18 | 99 | 1008.8 |
| 20260509121343 | 45 | 100 | 0.9 | 2.6 | 0.09 | 0.18 | 0.18 | 99 | 1008.9 |
| 20260509120841 | 45 | 38 | 1.7 | 1.7 | 0.09 | 0.17 | 0.17 | 99 | 1008.7 |
| 20260509120339 | 45 | 75 | 0.9 | 2.6 | 0.07 | 0.17 | 0.17 | 99 | 1008.8 |
| 20260509115837 | 44 | 77 | 0.9 | 1.7 | 0.05 | 0.16 | 0.16 | 99 | 1008.9 |
| 20260509115333 | 44 | 70 | 1.7 | 1.7 | 0.05 | 0.15 | 0.15 | 99 | 1008.7 |
| 20260509114831 | 44 | 72 | 1.7 | 2.6 | 0.05 | 0.15 | 0.15 | 99 | 1008.8 |
| 20260509114330 | 44 | 50 | 1.7 | 1.7 | 0.07 | 0.15 | 0.15 | 99 | 1009.0 |
| 20260509113829 | 43 | 38 | 1.7 | 2.6 | 0.05 | 0.14 | 0.14 | 99 | 1008.7 |
| 20260509113325 | 43 | 76 | 1.7 | 2.6 | 0.05 | 0.13 | 0.13 | 99 | 1008.8 |
| 20260509112822 | 43 | 73 | 2.6 | 2.6 | 0.05 | 0.13 | 0.13 | 99 | 1008.7 |
| 20260509112319 | 43 | 72 | 1.7 | 1.7 | 0.07 | 0.13 | 0.13 | 99 | 1008.9 |
| 20260509111816 | 43 | 89 | 1.7 | 1.7 | 0.07 | 0.12 | 0.12 | 99 | 1008.8 |
| 20260509111313 | 43 | 95 | 1.7 | 2.6 | 0.07 | 0.11 | 0.11 | 99 | 1008.7 |
| 20260509110811 | 43 | 83 | 1.7 | 2.6 | 0.07 | 0.11 | 0.11 | 99 | 1008.7 |
| 20260509110307 | 43 | 87 | 1.7 | 1.7 | 0.07 | 0.10 | 0.10 | 99 | 1008.4 |
| 20260509105805 | 42 | 39 | 0.9 | 1.7 | 0.07 | 0.09 | 0.09 | 99 | 1008.6 |
| 20260509105306 | 42 | 51 | 0.0 | 1.7 | 0.09 | 0.09 | 0.09 | 99 | 1008.4 |
| 20260509104759 | 42 | 81 | 1.7 | 2.6 | 0.09 | 0.08 | 0.08 | 99 | 1008.4 |
| 20260509104256 | 42 | 74 | 1.7 | 1.7 | 0.07 | 0.07 | 0.07 | 99 | 1008.5 |
| 20260509103754 | 42 | 74 | 1.7 | 1.7 | 0.07 | 0.07 | 0.07 | 99 | 1008.6 |
| 20260509103251 | 42 | 63 | 1.7 | 1.7 | 0.07 | 0.06 | 0.06 | 99 | 1008.7 |
| 20260509102749 | 42 | 49 | 1.7 | 2.6 | 0.07 | 0.06 | 0.06 | 99 | 1008.7 |
| 20260509102246 | 42 | 89 | 2.6 | 2.6 | 0.05 | 0.05 | 0.05 | 99 | 1008.7 |
| 20260509101743 | 42 | 92 | 0.9 | 1.7 | 0.05 | 0.04 | 0.04 | 99 | 1008.8 |
| 20260509101239 | 42 | 97 | 0.9 | 1.7 | 0.02 | 0.04 | 0.04 | 99 | 1008.7 |
| 20260509100736 | 42 | 87 | 1.7 | 1.7 | 0.02 | 0.04 | 0.04 | 99 | 1008.4 |
| 20260509100233 | 42 | 45 | 1.7 | 2.6 | 0.05 | 0.04 | 0.04 | 99 | 1008.4 |
| 20260509095730 | 42 | 62 | 1.7 | 2.6 | 0.02 | 0.03 | 0.03 | 99 | 1008.3 |
| 20260509095227 | 41 | 59 | 1.7 | 1.7 | 0.00 | 0.03 | 0.03 | 99 | 1008.6 |
| 20260509094724 | 41 | 84 | 1.7 | 1.7 | 0.00 | 0.03 | 0.03 | 99 | 1008.6 |
| 20260509094221 | 41 | 81 | 1.7 | 1.7 | 0.00 | 0.03 | 0.03 | 99 | 1008.3 |
| 20260509093719 | 41 | 56 | 2.6 | 2.6 | 0.00 | 0.03 | 0.03 | 99 | 1008.2 |
| 20260509093216 | 41 | 38 | 2.6 | 2.6 | 0.00 | 0.03 | 0.03 | 99 | 1008.2 |
| 20260509092714 | 41 | 82 | 1.7 | 1.7 | 0.00 | 0.03 | 0.03 | 99 | 1008.6 |
| 20260509092212 | 41 | 72 | 0.9 | 1.7 | 0.00 | 0.03 | 0.03 | 99 | 1008.6 |
| 20260509091710 | 41 | 73 | 1.7 | 1.7 | 0.00 | 0.03 | 0.03 | 99 | 1008.5 |
| 20260509091205 | 41 | 62 | 1.7 | 1.7 | 0.00 | 0.03 | 0.03 | 99 | 1008.6 |
| 20260509090704 | 41 | 75 | 1.7 | 2.6 | 0.02 | 0.03 | 0.03 | 99 | 1008.5 |
| 20260509090200 | 41 | 57 | 0.9 | 1.7 | 0.02 | 0.03 | 0.03 | 99 | 1008.5 |
| 20260509085658 | 41 | 73 | 1.7 | 2.6 | 0.02 | 0.02 | 0.02 | 99 | 1008.5 |
| 20260509085154 | 41 | 69 | 1.7 | 1.7 | 0.02 | 0.02 | 0.02 | 99 | 1008.8 |
| 20260509084652 | 41 | 53 | 1.7 | 1.7 | 0.00 | 0.02 | 0.02 | 99 | 1008.8 |
| 20260509084148 | 41 | 78 | 1.7 | 1.7 | 0.00 | 0.02 | 0.02 | 99 | 1008.9 |
| 20260509083646 | 41 | 78 | 1.7 | 2.6 | 0.00 | 0.02 | 0.02 | 99 | 1008.7 |
| 20260509083142 | 41 | 60 | 1.7 | 2.6 | 0.00 | 0.02 | 0.02 | 99 | 1008.5 |
| 20260509082640 | 41 | 86 | 1.7 | 1.7 | 0.00 | 0.02 | 0.02 | 99 | 1008.8 |
| 20260509082136 | 41 | 89 | 0.0 | 1.7 | 0.02 | 0.02 | 0.02 | 99 | 1009.0 |
| 20260509081633 | 41 | 86 | 1.7 | 1.7 | 0.02 | 0.02 | 0.02 | 99 | 1008.8 |
| 20260509081131 | 41 | 34 | 0.0 | 0.9 | 0.00 | 0.02 | 0.02 | 99 | 1008.9 |
| 20260509080629 | 41 | 57 | 1.7 | 1.7 | 0.00 | 0.02 | 0.02 | 99 | 1008.9 |
| 20260509080126 | 41 | 50 | 0.9 | 1.7 | 0.00 | 0.02 | 0.02 | 99 | 1009.3 |
| 20260509075624 | 41 | 55 | 1.7 | 1.7 | 0.00 | 0.02 | 0.02 | 98 | 1009.3 |
| 20260509075121 | 41 | 61 | 1.7 | 1.7 | 0.00 | 0.02 | 0.02 | 98 | 1009.3 |
| 20260509074618 | 41 | 62 | 1.7 | 1.7 | 0.00 | 0.02 | 0.02 | 98 | 1009.2 |
| 20260509074115 | 41 | 87 | 0.9 | 1.7 | 0.00 | 0.02 | 0.02 | 98 | 1009.0 |
| 20260509073611 | 41 | 54 | 1.7 | 1.7 | 0.00 | 0.02 | 0.02 | 98 | 1009.0 |
| 20260509073108 | 41 | 56 | 1.7 | 1.7 | 0.00 | 0.02 | 0.02 | 98 | 1009.2 |
| 20260509072605 | 41 | 84 | 1.7 | 2.6 | 0.00 | 0.02 | 0.02 | 98 | 1009.0 |
| 20260509072101 | 41 | 61 | 0.9 | 1.7 | 0.00 | 0.02 | 0.02 | 98 | 1008.9 |
| 20260509071558 | 41 | 57 | 1.7 | 2.6 | 0.00 | 0.02 | 0.02 | 97 | 1008.9 |
| 20260509071055 | 41 | 79 | 1.7 | 1.7 | 0.02 | 0.02 | 0.02 | 97 | 1008.8 |
| 20260509070553 | 41 | 73 | 1.7 | 1.7 | 0.02 | 0.02 | 0.02 | 97 | 1008.8 |
| 20260509070049 | 41 | 59 | 1.7 | 1.7 | 0.00 | 0.01 | 0.01 | 96 | 1009.0 |
| 20260509065544 | 41 | 52 | 1.7 | 1.7 | 0.00 | 0.01 | 0.01 | 96 | 1009.0 |
| 20260509065041 | 41 | 67 | 1.7 | 1.7 | 0.00 | 0.01 | 0.01 | 96 | 1009.0 |
| 20260509064539 | 41 | 64 | 1.7 | 1.7 | 0.00 | 0.01 | 0.01 | 96 | 1009.1 |
| 20260509064037 | 41 | 67 | 1.7 | 1.7 | 0.02 | 0.01 | 0.01 | 95 | 1009.2 |